Time;durP1;ratioP1;P1;durP2;ratioP2;P2;SDS_P1;SDS_P2;PMS_P1;PMS_P2;Temp;Humidity;BMP_temperature;BMP_pressure;BME280_temperature;BME280_humidity;BME280_pressure;Samples;Min_cycle;Max_cycle;Signal;HPM_P1;HPM_P2
2022/09/23 00:01:01;;;;;;;20.60;19.10;;;;;;;;;;5102708;28;20447;-82
2022/09/23 00:03:29;;;;;;;19.77;18.67;;;;;;;;;;5103068;28;20474;-82
2022/09/23 00:06:00;;;;;;;19.20;18.20;;;;;;;;;;5103123;28;20452;-82
2022/09/23 00:08:29;;;;;;;19.20;18.20;;;;;;;;;;5103237;28;20458;-82
2022/09/23 00:10:56;;;;;;;19.50;18.50;;;;;;;;;;5102887;28;20533;-81
2022/09/23 00:13:24;;;;;;;20.33;19.23;;;;;;;;;;5102069;28;20462;-82
2022/09/23 00:15:52;;;;;;;19.37;18.47;;;;;;;;;;5102343;28;20464;-82
2022/09/23 00:18:19;;;;;;;19.50;18.40;;;;;;;;;;5103001;28;20420;-82
2022/09/23 00:20:47;;;;;;;19.00;18.10;;;;;;;;;;5102505;28;20799;-82
2022/09/23 00:23:14;;;;;;;20.20;19.00;;;;;;;;;;5101347;28;20886;-82
2022/09/23 00:25:43;;;;;;;19.27;18.30;;;;;;;;;;5102257;28;20939;-82
2022/09/23 00:28:10;;;;;;;19.87;18.77;;;;;;;;;;5102468;28;20426;-82
2022/09/23 00:30:38;;;;;;;19.10;18.20;;;;;;;;;;5102764;28;20440;-82
2022/09/23 00:33:05;;;;;;;21.13;19.80;;;;;;;;;;5101803;28;20465;-82
2022/09/23 00:35:33;;;;;;;20.80;19.40;;;;;;;;;;5102407;28;20440;-82
2022/09/23 00:38:00;;;;;;;19.67;18.67;;;;;;;;;;5102688;28;20823;-82
2022/09/23 00:40:28;;;;;;;20.10;18.80;;;;;;;;;;5102289;28;20454;-83
2022/09/23 00:42:56;;;;;;;20.30;19.20;;;;;;;;;;5101325;28;20463;-82
2022/09/23 00:45:24;;;;;;;20.37;19.17;;;;;;;;;;5101504;28;20485;-82
2022/09/23 00:47:53;;;;;;;19.83;18.70;;;;;;;;;;5102096;28;20444;-82
2022/09/23 00:50:23;;;;;;;20.37;19.00;;;;;;;;;;5102023;28;20819;-82
2022/09/23 00:52:51;;;;;;;18.90;18.00;;;;;;;;;;5101918;28;20501;-82
2022/09/23 00:55:22;;;;;;;19.73;18.63;;;;;;;;;;5101934;28;20457;-82
2022/09/23 00:57:50;;;;;;;20.23;19.10;;;;;;;;;;5102104;28;20200;-81
2022/09/23 01:00:19;;;;;;;20.17;18.97;;;;;;;;;;5101891;28;20417;-82
2022/09/23 01:02:46;;;;;;;20.27;18.97;;;;;;;;;;5100591;28;20468;-82
2022/09/23 01:05:14;;;;;;;20.57;19.07;;;;;;;;;;5101007;28;20910;-82
2022/09/23 01:07:41;;;;;;;20.80;19.37;;;;;;;;;;5101771;28;20448;-82
2022/09/23 01:10:09;;;;;;;19.70;18.50;;;;;;;;;;5101046;28;20442;-82
2022/09/23 01:12:44;;;;;;;19.17;18.10;;;;;;;;;;5100895;28;20352;-82
2022/09/23 01:15:15;;;;;;;20.43;19.13;;;;;;;;;;5101457;28;20448;-82
2022/09/23 01:17:51;;;;;;;19.40;18.40;;;;;;;;;;5101842;28;20829;-82
2022/09/23 01:20:40;;;;;;;19.83;18.37;;;;;;;;;;5100406;28;20441;-82
2022/09/23 01:23:13;;;;;;;19.27;18.20;;;;;;;;;;5076100;28;20518;-81
2022/09/23 01:25:52;;;;;;;19.87;18.67;;;;;;;;;;5101134;28;20493;-82
2022/09/23 01:28:27;;;;;;;20.10;19.00;;;;;;;;;;5101146;28;20448;-82
2022/09/23 01:30:58;;;;;;;19.97;18.73;;;;;;;;;;5100821;28;20480;-83
2022/09/23 01:33:30;;;;;;;19.37;18.27;;;;;;;;;;5101328;28;20465;-82
2022/09/23 01:36:05;;;;;;;19.00;18.00;;;;;;;;;;5100969;28;20447;-82
2022/09/23 01:38:39;;;;;;;19.35;18.30;;;;;;;;;;5101041;28;20413;-82
2022/09/23 01:41:14;;;;;;;20.53;19.30;;;;;;;;;;5100717;28;20688;-82
2022/09/23 01:43:44;;;;;;;21.23;19.67;;;;;;;;;;5100492;28;20473;-82
2022/09/23 01:46:16;;;;;;;19.57;18.23;;;;;;;;;;5101086;28;20475;-82
2022/09/23 01:48:46;;;;;;;19.40;18.40;;;;;;;;;;5101169;28;20843;-82
2022/09/23 01:51:15;;;;;;;20.85;19.23;;;;;;;;;;5100728;28;20467;-82
2022/09/23 01:53:48;;;;;;;19.17;17.97;;;;;;;;;;5100285;28;20222;-82
2022/09/23 01:56:18;;;;;;;19.38;18.27;;;;;;;;;;5101550;28;20530;-82
2022/09/23 01:58:47;;;;;;;18.97;17.97;;;;;;;;;;5101203;28;20638;-82
2022/09/23 02:01:19;;;;;;;18.90;17.93;;;;;;;;;;5100961;28;20445;-82
2022/09/23 02:03:49;;;;;;;19.07;17.53;;;;;;;;;;5100118;28;20471;-82
2022/09/23 02:06:20;;;;;;;18.53;17.63;;;;;;;;;;5100591;28;20425;-82
2022/09/23 02:08:50;;;;;;;19.50;18.43;;;;;;;;;;5101239;28;20411;-82
2022/09/23 02:11:17;;;;;;;19.17;17.73;;;;;;;;;;5099823;28;20495;-82
2022/09/23 02:13:47;;;;;;;18.57;17.67;;;;;;;;;;5099453;28;20488;-82
2022/09/23 02:16:21;;;;;;;20.10;18.97;;;;;;;;;;5100159;28;20455;-82
2022/09/23 02:18:52;;;;;;;19.87;18.67;;;;;;;;;;5100635;28;20867;-82
2022/09/23 02:21:23;;;;;;;19.00;18.00;;;;;;;;;;5100751;28;20408;-82
2022/09/23 02:23:53;;;;;;;18.80;17.70;;;;;;;;;;5099503;28;20458;-82
2022/09/23 02:26:22;;;;;;;18.57;17.67;;;;;;;;;;5100743;28;20497;-82
2022/09/23 02:28:52;;;;;;;18.73;17.73;;;;;;;;;;5100491;28;20422;-82
2022/09/23 02:31:26;;;;;;;19.13;18.13;;;;;;;;;;5099551;28;20470;-82
2022/09/23 02:33:56;;;;;;;18.83;17.87;;;;;;;;;;5100354;28;20459;-82
2022/09/23 02:36:26;;;;;;;18.40;17.50;;;;;;;;;;5099850;28;20831;-82
2022/09/23 02:38:56;;;;;;;18.93;17.73;;;;;;;;;;5101334;28;20451;-82
2022/09/23 02:41:26;;;;;;;18.70;17.70;;;;;;;;;;5099429;28;20897;-82
2022/09/23 02:43:55;;;;;;;19.27;18.07;;;;;;;;;;5099772;28;20446;-82
2022/09/23 02:46:24;;;;;;;18.57;17.67;;;;;;;;;;5100417;28;20444;-82
2022/09/23 02:48:55;;;;;;;19.10;18.10;;;;;;;;;;5100540;28;20475;-82
2022/09/23 02:51:24;;;;;;;18.63;17.70;;;;;;;;;;5099135;28;20454;-82
2022/09/23 02:53:52;;;;;;;18.37;17.40;;;;;;;;;;5099749;28;20511;-82
2022/09/23 02:56:20;;;;;;;19.10;18.10;;;;;;;;;;5099680;28;20455;-82
2022/09/23 02:58:48;;;;;;;18.50;17.60;;;;;;;;;;5099852;28;20476;-82
2022/09/23 03:01:21;;;;;;;19.27;18.30;;;;;;;;;;5098497;28;20987;-82
2022/09/23 03:03:56;;;;;;;19.57;18.37;;;;;;;;;;5100130;28;20438;-82
2022/09/23 03:06:28;;;;;;;19.40;18.30;;;;;;;;;;5100122;28;20399;-82
2022/09/23 03:08:59;;;;;;;18.70;17.80;;;;;;;;;;5100328;28;20414;-82
2022/09/23 03:11:27;;;;;;;20.17;19.00;;;;;;;;;;5098924;28;20565;-82
2022/09/23 03:14:05;;;;;;;19.23;18.23;;;;;;;;;;5099624;28;20334;-82
2022/09/23 03:16:35;;;;;;;19.20;17.63;;;;;;;;;;5099741;28;20410;-82
2022/09/23 03:19:11;;;;;;;19.67;18.43;;;;;;;;;;5099281;28;20210;-82
2022/09/23 03:21:40;;;;;;;19.77;18.50;;;;;;;;;;5097881;28;20490;-81
2022/09/23 03:24:09;;;;;;;19.03;17.83;;;;;;;;;;5099247;28;20459;-82
2022/09/23 03:26:38;;;;;;;19.20;18.23;;;;;;;;;;5099362;28;20429;-82
2022/09/23 03:29:09;;;;;;;18.50;17.60;;;;;;;;;;5103075;28;20423;-82
2022/09/23 03:31:38;;;;;;;18.57;17.57;;;;;;;;;;5102847;28;20410;-82
2022/09/23 03:34:11;;;;;;;19.10;17.90;;;;;;;;;;5102778;28;20829;-82
2022/09/23 03:36:52;;;;;;;18.70;17.80;;;;;;;;;;5103561;28;20490;-82
2022/09/23 03:39:24;;;;;;;18.50;17.50;;;;;;;;;;5103110;28;20452;-82
2022/09/23 03:41:53;;;;;;;20.80;19.37;;;;;;;;;;5102268;28;20434;-82
2022/09/23 03:44:22;;;;;;;18.77;17.87;;;;;;;;;;5103990;28;20436;-82
2022/09/23 03:46:49;;;;;;;18.20;17.30;;;;;;;;;;5102789;28;21030;-82
2022/09/23 03:49:19;;;;;;;19.67;18.57;;;;;;;;;;5102671;28;20903;-82
2022/09/23 03:51:47;;;;;;;18.73;17.63;;;;;;;;;;5102235;28;20445;-82
2022/09/23 03:54:14;;;;;;;17.93;17.13;;;;;;;;;;5102102;28;20495;-82
2022/09/23 03:56:43;;;;;;;18.33;17.33;;;;;;;;;;5102683;28;20422;-82
2022/09/23 03:59:10;;;;;;;19.20;18.20;;;;;;;;;;5102917;28;20451;-82
2022/09/23 04:01:37;;;;;;;19.13;18.03;;;;;;;;;;5102602;28;20426;-82
2022/09/23 04:04:05;;;;;;;18.60;17.60;;;;;;;;;;5102338;28;20472;-82
2022/09/23 04:06:33;;;;;;;19.00;17.70;;;;;;;;;;5102637;28;20542;-82
2022/09/23 04:09:01;;;;;;;19.07;18.00;;;;;;;;;;5102524;28;20422;-82
2022/09/23 04:11:29;;;;;;;19.10;18.10;;;;;;;;;;5102420;28;20447;-82
2022/09/23 04:13:57;;;;;;;19.30;18.20;;;;;;;;;;5101637;28;20907;-82
2022/09/23 04:16:24;;;;;;;19.67;18.63;;;;;;;;;;5102754;28;20440;-82
2022/09/23 04:18:52;;;;;;;20.27;18.87;;;;;;;;;;5103074;28;20502;-81
2022/09/23 04:21:19;;;;;;;19.10;18.10;;;;;;;;;;5102210;28;20427;-82
2022/09/23 04:23:48;;;;;;;19.30;18.27;;;;;;;;;;5101721;28;20503;-81
2022/09/23 04:26:15;;;;;;;19.77;18.77;;;;;;;;;;5102113;28;20940;-82
2022/09/23 04:28:43;;;;;;;20.20;19.20;;;;;;;;;;5101731;28;20970;-82
2022/09/23 04:31:10;;;;;;;19.83;18.73;;;;;;;;;;5101946;28;20448;-82
2022/09/23 04:33:38;;;;;;;19.60;18.60;;;;;;;;;;5101336;28;20493;-82
2022/09/23 04:36:05;;;;;;;19.83;18.63;;;;;;;;;;5101469;28;20432;-81
2022/09/23 04:38:33;;;;;;;20.70;19.30;;;;;;;;;;5100148;28;20418;-82
2022/09/23 04:41:02;;;;;;;19.37;18.37;;;;;;;;;;5100902;28;20448;-82
2022/09/23 04:43:29;;;;;;;21.13;19.73;;;;;;;;;;5102033;28;20971;-81
2022/09/23 04:46:01;;;;;;;19.03;18.03;;;;;;;;;;5101653;28;20468;-82
2022/09/23 04:48:28;;;;;;;18.57;17.67;;;;;;;;;;5102230;28;20447;-82
2022/09/23 04:50:55;;;;;;;19.20;17.90;;;;;;;;;;5101871;28;20452;-83
2022/09/23 04:53:23;;;;;;;19.10;18.10;;;;;;;;;;5102061;28;20971;-81
2022/09/23 04:55:51;;;;;;;19.17;18.10;;;;;;;;;;5101245;28;20454;-82
2022/09/23 04:58:21;;;;;;;18.70;17.70;;;;;;;;;;5101910;28;20290;-82
2022/09/23 05:00:49;;;;;;;19.70;18.43;;;;;;;;;;5101600;28;20439;-82
2022/09/23 05:03:16;;;;;;;19.05;18.05;;;;;;;;;;5100694;28;20433;-82
2022/09/23 05:05:44;;;;;;;20.03;18.63;;;;;;;;;;5101265;28;20224;-82
2022/09/23 05:08:12;;;;;;;19.47;18.37;;;;;;;;;;5101739;28;20441;-82
2022/09/23 05:10:39;;;;;;;21.77;20.10;;;;;;;;;;5100845;28;20441;-82
2022/09/23 05:13:06;;;;;;;19.70;18.70;;;;;;;;;;5099711;28;20849;-81
2022/09/23 05:15:35;;;;;;;19.77;18.63;;;;;;;;;;5100178;28;20442;-81
2022/09/23 05:18:02;;;;;;;20.40;19.30;;;;;;;;;;5100793;28;20455;-82
2022/09/23 05:20:30;;;;;;;20.03;19.00;;;;;;;;;;5100379;28;20453;-82
2022/09/23 05:22:58;;;;;;;20.13;19.03;;;;;;;;;;5102671;28;20472;-80
2022/09/23 05:25:26;;;;;;;21.07;19.77;;;;;;;;;;5104803;28;20479;-80
2022/09/23 05:27:53;;;;;;;20.00;18.90;;;;;;;;;;5105996;28;20480;-80
2022/09/23 05:30:20;;;;;;;20.23;19.03;;;;;;;;;;5105981;28;20430;-80
2022/09/23 05:32:49;;;;;;;19.57;18.57;;;;;;;;;;5105246;28;20812;-80
2022/09/23 05:35:16;;;;;;;19.60;18.53;;;;;;;;;;5105507;28;20459;-80
2022/09/23 05:37:44;;;;;;;19.93;18.83;;;;;;;;;;5104641;28;20457;-80
2022/09/23 05:40:11;;;;;;;18.67;17.67;;;;;;;;;;5105560;28;20427;-80
2022/09/23 05:42:38;;;;;;;20.77;19.47;;;;;;;;;;5104649;28;20447;-80
2022/09/23 05:45:06;;;;;;;19.88;18.85;;;;;;;;;;5105260;28;20473;-80
2022/09/23 05:47:33;;;;;;;19.73;18.63;;;;;;;;;;5105528;28;20207;-83
2022/09/23 05:50:02;;;;;;;20.60;19.40;;;;;;;;;;5104441;28;20427;-80
2022/09/23 05:52:30;;;;;;;20.43;19.20;;;;;;;;;;5103753;28;21018;-80
2022/09/23 05:54:57;;;;;;;20.48;19.27;;;;;;;;;;5104535;28;20546;-80
2022/09/23 05:57:25;;;;;;;20.20;19.10;;;;;;;;;;5104799;28;20228;-80
2022/09/23 05:59:52;;;;;;;21.42;20.00;;;;;;;;;;5105415;28;20447;-80
2022/09/23 06:02:20;;;;;;;21.63;20.33;;;;;;;;;;5104127;28;20226;-80
2022/09/23 06:04:47;;;;;;;20.97;19.67;;;;;;;;;;5104985;28;20460;-80
2022/09/23 06:07:16;;;;;;;20.57;19.47;;;;;;;;;;5104345;28;20423;-80
2022/09/23 06:09:44;;;;;;;20.83;19.73;;;;;;;;;;5104200;28;20419;-80
2022/09/23 06:12:13;;;;;;;22.20;20.77;;;;;;;;;;5103728;28;20504;-79
2022/09/23 06:14:40;;;;;;;21.53;20.23;;;;;;;;;;5103144;28;20491;-80
2022/09/23 06:17:07;;;;;;;20.73;19.42;;;;;;;;;;5104835;28;20430;-80
2022/09/23 06:19:34;;;;;;;20.90;19.70;;;;;;;;;;5104331;28;20199;-80
2022/09/23 06:22:02;;;;;;;20.80;19.40;;;;;;;;;;5104555;28;20427;-80
2022/09/23 06:24:31;;;;;;;20.57;19.57;;;;;;;;;;5104247;28;20443;-80
2022/09/23 06:26:58;;;;;;;20.30;19.20;;;;;;;;;;5105100;28;20487;-81
2022/09/23 06:29:26;;;;;;;19.80;18.80;;;;;;;;;;5104523;28;20918;-80
2022/09/23 06:31:54;;;;;;;21.50;20.00;;;;;;;;;;5104796;28;20452;-80
2022/09/23 06:34:21;;;;;;;20.13;19.07;;;;;;;;;;5104422;28;20498;-80
2022/09/23 06:36:50;;;;;;;20.93;19.73;;;;;;;;;;5105490;28;20434;-80
2022/09/23 06:39:18;;;;;;;19.40;18.30;;;;;;;;;;5105178;28;20422;-81
2022/09/23 06:41:47;;;;;;;20.00;18.70;;;;;;;;;;5104225;28;20420;-80
2022/09/23 06:44:15;;;;;;;19.97;18.97;;;;;;;;;;5103753;28;20452;-81
2022/09/23 06:46:42;;;;;;;20.10;18.87;;;;;;;;;;5104036;28;20448;-80
2022/09/23 06:49:12;;;;;;;19.90;18.70;;;;;;;;;;5104854;28;20462;-80
2022/09/23 06:51:39;;;;;;;19.07;18.17;;;;;;;;;;5104151;28;20486;-79
2022/09/23 06:54:07;;;;;;;21.50;19.93;;;;;;;;;;5104543;28;20528;-80
2022/09/23 06:56:35;;;;;;;20.17;19.07;;;;;;;;;;5104232;28;20825;-80
2022/09/23 06:59:03;;;;;;;20.30;19.30;;;;;;;;;;5104940;28;20510;-79
2022/09/23 07:01:32;;;;;;;20.43;19.30;;;;;;;;;;5106244;28;20433;-79
2022/09/23 07:04:00;;;;;;;24.33;22.43;;;;;;;;;;5107442;28;20592;-80
2022/09/23 07:06:27;;;;;;;21.90;20.50;;;;;;;;;;5105080;28;20543;-80
2022/09/23 07:08:55;;;;;;;20.40;19.40;;;;;;;;;;5105050;28;20431;-79
2022/09/23 07:11:22;;;;;;;20.10;19.10;;;;;;;;;;5100859;28;20422;-83
2022/09/23 07:13:51;;;;;;;21.30;20.30;;;;;;;;;;5099096;28;20541;-82
2022/09/23 07:16:19;;;;;;;21.93;20.63;;;;;;;;;;5104316;28;20427;-81
2022/09/23 07:18:47;;;;;;;22.63;21.23;;;;;;;;;;5101152;28;20424;-80
2022/09/23 07:21:15;;;;;;;24.20;22.50;;;;;;;;;;5101959;28;20419;-80
2022/09/23 07:23:43;;;;;;;22.70;21.20;;;;;;;;;;5101996;28;20481;-80
2022/09/23 07:26:10;;;;;;;27.63;25.30;;;;;;;;;;5103391;28;20415;-80
2022/09/23 07:28:37;;;;;;;29.63;27.27;;;;;;;;;;5102691;28;20423;-80
2022/09/23 07:31:07;;;;;;;26.30;24.23;;;;;;;;;;5102204;28;20452;-79
2022/09/23 07:33:36;;;;;;;27.07;24.87;;;;;;;;;;5103466;28;20463;-80
2022/09/23 07:36:07;;;;;;;24.83;23.03;;;;;;;;;;5103408;28;20430;-80
2022/09/23 07:38:34;;;;;;;25.67;23.80;;;;;;;;;;5102935;28;20419;-80
2022/09/23 07:41:02;;;;;;;27.13;25.00;;;;;;;;;;5102587;28;20447;-78
2022/09/23 07:43:31;;;;;;;23.13;21.60;;;;;;;;;;5102095;28;20451;-79
2022/09/23 07:45:59;;;;;;;21.33;20.17;;;;;;;;;;5101977;28;20469;-81
2022/09/23 07:48:26;;;;;;;22.90;21.57;;;;;;;;;;5100241;28;20422;-79
2022/09/23 07:50:55;;;;;;;23.40;22.00;;;;;;;;;;5101971;28;20989;-80
2022/09/23 07:53:23;;;;;;;24.03;22.40;;;;;;;;;;5102383;28;20450;-79
2022/09/23 07:55:54;;;;;;;24.60;22.87;;;;;;;;;;5103171;28;20463;-79
2022/09/23 07:58:22;;;;;;;23.67;22.17;;;;;;;;;;5101880;28;20456;-85
2022/09/23 08:00:52;;;;;;;25.23;23.47;;;;;;;;;;5098922;28;20456;-85
2022/09/23 08:03:19;;;;;;;23.10;21.70;;;;;;;;;;5100488;28;20478;-84
2022/09/23 08:05:47;;;;;;;22.83;21.53;;;;;;;;;;5105406;28;20427;-84
2022/09/23 08:08:16;;;;;;;24.60;23.00;;;;;;;;;;5090496;28;20449;-81
2022/09/23 08:10:44;;;;;;;25.50;23.60;;;;;;;;;;5081770;28;20424;-81
2022/09/23 08:13:12;;;;;;;24.80;22.93;;;;;;;;;;5081827;28;20455;-81
2022/09/23 08:15:42;;;;;;;23.13;21.73;;;;;;;;;;5085219;28;20460;-81
2022/09/23 08:18:10;;;;;;;23.50;22.03;;;;;;;;;;5084799;28;20438;-82
2022/09/23 08:20:46;;;;;;;22.50;20.93;;;;;;;;;;5097851;28;20446;-83
2022/09/23 08:23:14;;;;;;;22.60;21.40;;;;;;;;;;5101796;28;20466;-81
2022/09/23 08:25:44;;;;;;;22.63;21.10;;;;;;;;;;5104417;28;20437;-81
2022/09/23 08:28:15;;;;;;;22.50;21.20;;;;;;;;;;5103211;28;20484;-81
2022/09/23 08:30:42;;;;;;;22.30;20.90;;;;;;;;;;5102164;28;20506;-81
2022/09/23 08:33:10;;;;;;;23.23;21.83;;;;;;;;;;5101699;28;20464;-81
2022/09/23 08:35:37;;;;;;;24.80;22.90;;;;;;;;;;5101730;28;20459;-81
2022/09/23 08:38:05;;;;;;;24.83;22.63;;;;;;;;;;5102204;28;20434;-81
2022/09/23 08:40:34;;;;;;;22.90;21.63;;;;;;;;;;5102082;28;20430;-81
2022/09/23 08:43:05;;;;;;;22.67;21.47;;;;;;;;;;5101806;28;20899;-82
2022/09/23 08:45:35;;;;;;;22.60;21.23;;;;;;;;;;5101924;28;20447;-81
2022/09/23 08:48:05;;;;;;;23.17;21.80;;;;;;;;;;5101689;28;20441;-81
2022/09/23 08:50:37;;;;;;;23.67;22.10;;;;;;;;;;5101939;28;20433;-81
2022/09/23 08:53:06;;;;;;;23.53;22.13;;;;;;;;;;5101531;28;20474;-82
2022/09/23 08:55:35;;;;;;;23.30;22.00;;;;;;;;;;5101118;28;20524;-82
2022/09/23 08:58:20;;;;;;;24.13;22.43;;;;;;;;;;5103470;28;20452;-81
2022/09/23 09:00:51;;;;;;;23.60;22.10;;;;;;;;;;5103602;28;20455;-81
2022/09/23 09:03:20;;;;;;;23.20;21.90;;;;;;;;;;5101278;28;20539;-80
2022/09/23 09:05:48;;;;;;;24.23;22.80;;;;;;;;;;5103725;28;20440;-80
2022/09/23 09:08:20;;;;;;;23.20;21.90;;;;;;;;;;5103665;28;20536;-80
2022/09/23 09:10:48;;;;;;;25.10;23.60;;;;;;;;;;5104191;28;20427;-81
2022/09/23 09:13:24;;;;;;;23.83;22.40;;;;;;;;;;5102895;28;20555;-80
2022/09/23 09:15:53;;;;;;;24.80;23.40;;;;;;;;;;5104027;28;20475;-81
2022/09/23 09:18:21;;;;;;;24.57;23.03;;;;;;;;;;5103365;28;20419;-80
2022/09/23 09:20:55;;;;;;;22.63;21.33;;;;;;;;;;5104189;28;20473;-81
2022/09/23 09:23:24;;;;;;;23.13;21.77;;;;;;;;;;5103522;28;20491;-81
2022/09/23 09:25:52;;;;;;;23.20;21.90;;;;;;;;;;5103479;28;20441;-81
2022/09/23 09:28:23;;;;;;;23.90;22.47;;;;;;;;;;5103889;28;20431;-81
2022/09/23 09:30:54;;;;;;;23.40;22.20;;;;;;;;;;5103663;28;20833;-81
2022/09/23 09:33:25;;;;;;;25.70;23.87;;;;;;;;;;5104203;28;20959;-81
2022/09/23 09:35:59;;;;;;;24.53;23.10;;;;;;;;;;5104099;28;20454;-80
2022/09/23 09:38:27;;;;;;;24.47;22.87;;;;;;;;;;5103186;28;20480;-81
2022/09/23 09:40:55;;;;;;;25.43;23.90;;;;;;;;;;5105510;28;20441;-81
2022/09/23 09:43:24;;;;;;;25.10;23.60;;;;;;;;;;5104205;28;20476;-81
2022/09/23 09:45:58;;;;;;;24.33;22.70;;;;;;;;;;5103102;28;20427;-81
2022/09/23 09:48:27;;;;;;;24.83;23.13;;;;;;;;;;5103412;28;20470;-81
2022/09/23 09:50:55;;;;;;;253.17;227.73;;;;;;;;;;5102858;28;20559;-81
2022/09/23 09:53:24;;;;;;;24.27;22.77;;;;;;;;;;5103098;28;20465;-80
2022/09/23 09:56:02;;;;;;;25.20;23.60;;;;;;;;;;5102864;28;20477;-81
2022/09/23 09:58:40;;;;;;;24.13;22.83;;;;;;;;;;5103296;28;20404;-81
2022/09/23 10:01:08;;;;;;;26.13;24.43;;;;;;;;;;5101850;28;20415;-81
2022/09/23 10:03:38;;;;;;;25.13;23.73;;;;;;;;;;5101886;28;20505;-80
2022/09/23 10:06:14;;;;;;;26.73;25.13;;;;;;;;;;5103621;28;20425;-81
2022/09/23 10:08:41;;;;;;;26.57;25.00;;;;;;;;;;5103463;28;20398;-80
2022/09/23 10:11:14;;;;;;;26.10;24.50;;;;;;;;;;5102149;28;20840;-77
2022/09/23 10:13:44;;;;;;;26.30;24.73;;;;;;;;;;5102235;28;20450;-80
2022/09/23 10:16:16;;;;;;;24.50;23.20;;;;;;;;;;5102869;28;20546;-80
2022/09/23 10:18:52;;;;;;;25.17;23.70;;;;;;;;;;5103652;28;20399;-80
2022/09/23 10:21:22;;;;;;;24.63;23.10;;;;;;;;;;5102481;28;20944;-80
2022/09/23 10:23:51;;;;;;;24.80;23.30;;;;;;;;;;5102707;28;20812;-81
2022/09/23 10:26:26;;;;;;;24.07;22.77;;;;;;;;;;5102947;28;20408;-81
2022/09/23 10:28:57;;;;;;;25.10;23.80;;;;;;;;;;5103122;28;20405;-80
2022/09/23 10:31:26;;;;;;;25.07;23.47;;;;;;;;;;5101974;28;20393;-79
2022/09/23 10:33:56;;;;;;;25.00;23.40;;;;;;;;;;5102440;28;20460;-85
2022/09/23 10:36:23;;;;;;;24.60;23.00;;;;;;;;;;5104011;28;20455;-85
2022/09/23 10:38:53;;;;;;;24.47;23.07;;;;;;;;;;5103508;28;20455;-85
2022/09/23 10:47:16;;;;;;;23.93;22.27;;;;;;;;;;5103142;28;20423;-80
2022/09/23 10:50:04;;;;;;;24.87;22.83;;;;;;;;;;5102500;28;20456;-81
2022/09/23 10:52:39;;;;;;;24.43;22.43;;;;;;;;;;5076767;28;20471;-80
2022/09/23 10:55:14;;;;;;;36.37;29.57;;;;;;;;;;5102785;28;20463;-81
2022/09/23 10:57:47;;;;;;;39.67;33.73;;;;;;;;;;5102161;28;20424;-81
2022/09/23 11:00:31;;;;;;;23.53;22.03;;;;;;;;;;5101837;28;20473;-81
2022/09/23 11:03:32;;;;;;;25.00;23.60;;;;;;;;;;5101864;28;20462;-80
2022/09/23 11:06:04;;;;;;;23.90;22.60;;;;;;;;;;5039311;28;20408;-80
2022/09/23 11:08:37;;;;;;;24.67;23.17;;;;;;;;;;5039228;28;20432;-80
2022/09/23 11:11:11;;;;;;;25.67;24.17;;;;;;;;;;5070003;28;20468;-81
2022/09/23 11:13:43;;;;;;;24.10;22.70;;;;;;;;;;5101931;28;20508;-81
2022/09/23 11:16:17;;;;;;;24.40;23.00;;;;;;;;;;5101137;28;20451;-80
2022/09/23 11:18:52;;;;;;;23.10;21.70;;;;;;;;;;5099490;28;20423;-81
2022/09/23 11:21:31;;;;;;;24.37;22.83;;;;;;;;;;5101298;28;20526;-83
2022/09/23 11:24:05;;;;;;;25.00;23.50;;;;;;;;;;5099027;28;20552;-80
2022/09/23 11:26:39;;;;;;;24.30;22.80;;;;;;;;;;5084638;28;20441;-83
2022/09/23 11:29:21;;;;;;;25.10;23.50;;;;;;;;;;5077221;28;20788;-80
2022/09/23 11:31:54;;;;;;;24.63;23.03;;;;;;;;;;5071328;28;20929;-77
2022/09/23 11:34:31;;;;;;;23.60;22.10;;;;;;;;;;5075316;28;20441;-82
2022/09/23 11:37:03;;;;;;;23.23;21.73;;;;;;;;;;5073068;28;20401;-77
2022/09/23 11:39:32;;;;;;;23.53;22.13;;;;;;;;;;5072741;28;20490;-77
2022/09/23 11:42:01;;;;;;;26.10;24.50;;;;;;;;;;5072625;28;20450;-78
2022/09/23 11:44:30;;;;;;;24.60;23.03;;;;;;;;;;5073219;28;20429;-78
2022/09/23 11:47:00;;;;;;;23.70;21.90;;;;;;;;;;5073370;28;20418;-78
2022/09/23 11:49:30;;;;;;;22.93;21.63;;;;;;;;;;5076455;28;20428;-77
2022/09/23 11:52:03;;;;;;;23.50;22.00;;;;;;;;;;5076249;28;20429;-77
2022/09/23 11:54:34;;;;;;;23.90;22.30;;;;;;;;;;5076734;28;20445;-79
2022/09/23 11:57:04;;;;;;;23.57;22.17;;;;;;;;;;5077333;28;20856;-78
2022/09/23 11:59:36;;;;;;;23.73;22.33;;;;;;;;;;5077844;28;20855;-79
2022/09/23 12:02:06;;;;;;;23.83;22.23;;;;;;;;;;5076364;28;20476;-77
2022/09/23 12:04:34;;;;;;;24.20;22.60;;;;;;;;;;5076523;28;20441;-77
2022/09/23 12:07:05;;;;;;;24.53;22.93;;;;;;;;;;5076599;28;20463;-77
2022/09/23 12:09:35;;;;;;;22.40;21.20;;;;;;;;;;5076994;28;20482;-77
2022/09/23 12:12:07;;;;;;;23.30;21.70;;;;;;;;;;5076216;28;20479;-77
2022/09/23 12:14:37;;;;;;;22.20;21.00;;;;;;;;;;5076858;28;20524;-78
2022/09/23 12:17:16;;;;;;;22.70;21.40;;;;;;;;;;5076769;28;20773;-78
2022/09/23 12:19:53;;;;;;;21.97;20.73;;;;;;;;;;5076794;28;20503;-78
2022/09/23 12:22:30;;;;;;;22.33;21.20;;;;;;;;;;5075623;28;20473;-78
2022/09/23 12:24:58;;;;;;;22.23;20.83;;;;;;;;;;5076134;28;20458;-78
2022/09/23 12:27:29;;;;;;;24.07;22.67;;;;;;;;;;5076599;28;20456;-78
2022/09/23 12:29:58;;;;;;;23.13;21.43;;;;;;;;;;5076524;28;20439;-78
2022/09/23 12:32:28;;;;;;;22.87;21.67;;;;;;;;;;5075446;28;20971;-77
2022/09/23 12:34:55;;;;;;;23.60;22.30;;;;;;;;;;5076030;28;20455;-79
2022/09/23 12:37:27;;;;;;;23.53;22.13;;;;;;;;;;5075951;28;20799;-78
2022/09/23 12:39:55;;;;;;;22.40;21.10;;;;;;;;;;5076118;28;20454;-77
2022/09/23 12:42:23;;;;;;;22.57;21.37;;;;;;;;;;5075429;28;20483;-78
2022/09/23 12:44:51;;;;;;;22.47;21.17;;;;;;;;;;5075703;28;20449;-78
2022/09/23 12:47:37;;;;;;;24.77;22.83;;;;;;;;;;5075134;28;20940;-78
2022/09/23 12:50:20;;;;;;;22.77;21.47;;;;;;;;;;5076356;28;20889;-77
2022/09/23 12:52:47;;;;;;;22.47;21.17;;;;;;;;;;5074992;28;20464;-78
2022/09/23 12:55:31;;;;;;;23.47;22.07;;;;;;;;;;5075792;28;20900;-77
2022/09/23 12:57:58;;;;;;;22.93;21.63;;;;;;;;;;5075137;28;20469;-78
2022/09/23 13:00:26;;;;;;;22.90;21.60;;;;;;;;;;5074307;28;20453;-77
2022/09/23 13:08:31;;;;;;;23.67;22.37;;;;;;;;;;5075204;28;20806;-78
2022/09/23 13:11:00;;;;;;;23.27;21.80;;;;;;;;;;5075224;28;20438;-78
2022/09/23 13:13:30;;;;;;;22.13;20.93;;;;;;;;;;5075242;28;20445;-78
2022/09/23 13:16:10;;;;;;;22.93;21.63;;;;;;;;;;5075518;28;20479;-77
2022/09/23 13:18:58;;;;;;;23.23;21.93;;;;;;;;;;5074776;28;20494;-77
2022/09/23 13:21:44;;;;;;;23.20;21.90;;;;;;;;;;5074634;28;20429;-78
2022/09/23 13:24:18;;;;;;;22.87;21.57;;;;;;;;;;5074992;28;20494;-77
2022/09/23 13:26:46;;;;;;;22.83;21.33;;;;;;;;;;5075259;28;20839;-77
2022/09/23 13:29:17;;;;;;;23.77;22.27;;;;;;;;;;5074721;28;20463;-78
2022/09/23 13:31:45;;;;;;;24.50;23.00;;;;;;;;;;5074737;28;20430;-78
2022/09/23 13:34:14;;;;;;;23.17;21.97;;;;;;;;;;5075041;28;20471;-78
2022/09/23 13:36:45;;;;;;;23.47;22.17;;;;;;;;;;5075109;28;20483;-78
2022/09/23 13:39:21;;;;;;;23.23;21.93;;;;;;;;;;5074305;28;20468;-79
2022/09/23 13:41:49;;;;;;;24.27;22.83;;;;;;;;;;5074501;28;20470;-78
2022/09/23 13:44:19;;;;;;;22.97;21.57;;;;;;;;;;5074608;28;20421;-78
2022/09/23 13:46:49;;;;;;;22.03;20.93;;;;;;;;;;5074651;28;20459;-77
2022/09/23 13:49:22;;;;;;;22.30;21.07;;;;;;;;;;5074203;28;20476;-77
2022/09/23 13:51:49;;;;;;;23.47;21.80;;;;;;;;;;5074361;28;20474;-78
2022/09/23 13:54:28;;;;;;;22.20;20.90;;;;;;;;;;5074690;28;20426;-78
2022/09/23 13:56:56;;;;;;;21.93;20.63;;;;;;;;;;5074359;28;20502;-78
2022/09/23 13:59:25;;;;;;;22.47;21.17;;;;;;;;;;5074360;28;20502;-77
2022/09/23 14:02:02;;;;;;;21.93;20.73;;;;;;;;;;5073916;28;20452;-78
2022/09/23 14:04:30;;;;;;;22.40;20.90;;;;;;;;;;5074698;28;20435;-78
2022/09/23 14:06:57;;;;;;;23.53;22.07;;;;;;;;;;5074503;28;20809;-77
2022/09/23 14:09:27;;;;;;;23.17;21.70;;;;;;;;;;5073691;28;20522;-77
2022/09/23 14:11:57;;;;;;;22.73;21.20;;;;;;;;;;5073207;28;20449;-77
2022/09/23 14:14:25;;;;;;;27.00;25.03;;;;;;;;;;5074663;28;20441;-77
2022/09/23 14:16:53;;;;;;;22.60;21.20;;;;;;;;;;5074031;28;20456;-77
2022/09/23 14:19:22;;;;;;;21.67;20.47;;;;;;;;;;5073862;28;20438;-78
2022/09/23 14:21:50;;;;;;;22.40;21.03;;;;;;;;;;5073460;28;20449;-78
2022/09/23 14:24:19;;;;;;;23.17;21.87;;;;;;;;;;5073813;28;20906;-78
2022/09/23 14:26:48;;;;;;;23.30;21.90;;;;;;;;;;5073747;28;20945;-77
2022/09/23 14:29:18;;;;;;;21.80;20.50;;;;;;;;;;5073715;28;20476;-77
2022/09/23 14:31:55;;;;;;;23.57;22.27;;;;;;;;;;5073448;28;20455;-78
2022/09/23 14:34:42;;;;;;;22.87;21.53;;;;;;;;;;5074026;28;20437;-78
2022/09/23 14:40:16;;;;;;;21.87;20.47;;;;;;;;;;5073532;28;20439;-78
2022/09/23 14:42:45;;;;;;;22.37;21.07;;;;;;;;;;5074692;28;20472;-80
2022/09/23 14:45:16;;;;;;;23.03;21.83;;;;;;;;;;5076796;28;20430;-78
2022/09/23 14:47:45;;;;;;;23.50;22.20;;;;;;;;;;5077290;28;20445;-80